sensor_id;sensor_type;location;lat;lon;timestamp;P1;durP1;ratioP1;P2;durP2;ratioP2
75990;SDS011;64673;52.276;10.560;2023-06-22T00:00:55;12.70;;;8.25;;
75990;SDS011;64673;52.276;10.560;2023-06-22T00:03:22;12.13;;;8.65;;
75990;SDS011;64673;52.276;10.560;2023-06-22T00:05:49;12.15;;;8.02;;
75990;SDS011;64673;52.276;10.560;2023-06-22T00:08:16;14.38;;;8.18;;
75990;SDS011;64673;52.276;10.560;2023-06-22T00:10:42;12.32;;;7.45;;
75990;SDS011;64673;52.276;10.560;2023-06-22T00:13:08;11.77;;;7.80;;
75990;SDS011;64673;52.276;10.560;2023-06-22T00:15:34;10.52;;;7.55;;
75990;SDS011;64673;52.276;10.560;2023-06-22T00:18:01;12.10;;;8.07;;
75990;SDS011;64673;52.276;10.560;2023-06-22T00:20:27;11.20;;;7.88;;
75990;SDS011;64673;52.276;10.560;2023-06-22T00:22:56;13.02;;;7.90;;
75990;SDS011;64673;52.276;10.560;2023-06-22T00:25:22;12.18;;;8.25;;
75990;SDS011;64673;52.276;10.560;2023-06-22T00:27:48;13.57;;;7.95;;
75990;SDS011;64673;52.276;10.560;2023-06-22T00:30:15;11.82;;;7.95;;
75990;SDS011;64673;52.276;10.560;2023-06-22T00:32:42;15.40;;;9.50;;
75990;SDS011;64673;52.276;10.560;2023-06-22T00:35:08;13.88;;;8.98;;
75990;SDS011;64673;52.276;10.560;2023-06-22T00:37:34;12.82;;;7.95;;
75990;SDS011;64673;52.276;10.560;2023-06-22T00:40:01;13.85;;;9.45;;
75990;SDS011;64673;52.276;10.560;2023-06-22T00:42:26;12.30;;;8.45;;
75990;SDS011;64673;52.276;10.560;2023-06-22T00:44:51;13.20;;;8.00;;
75990;SDS011;64673;52.276;10.560;2023-06-22T00:47:17;13.43;;;8.35;;
75990;SDS011;64673;52.276;10.560;2023-06-22T00:49:43;13.18;;;8.57;;
75990;SDS011;64673;52.276;10.560;2023-06-22T00:52:10;13.10;;;8.60;;
75990;SDS011;64673;52.276;10.560;2023-06-22T00:54:39;13.65;;;9.75;;
75990;SDS011;64673;52.276;10.560;2023-06-22T00:57:10;14.63;;;9.20;;
75990;SDS011;64673;52.276;10.560;2023-06-22T00:59:37;14.57;;;8.65;;
75990;SDS011;64673;52.276;10.560;2023-06-22T01:02:04;12.75;;;8.40;;
75990;SDS011;64673;52.276;10.560;2023-06-22T01:04:36;12.10;;;7.93;;
75990;SDS011;64673;52.276;10.560;2023-06-22T01:07:08;14.73;;;8.85;;
75990;SDS011;64673;52.276;10.560;2023-06-22T01:09:57;13.60;;;8.52;;
75990;SDS011;64673;52.276;10.560;2023-06-22T01:12:34;14.30;;;8.48;;
75990;SDS011;64673;52.276;10.560;2023-06-22T01:15:10;12.77;;;9.18;;
75990;SDS011;64673;52.276;10.560;2023-06-22T01:17:40;11.45;;;7.80;;
75990;SDS011;64673;52.276;10.560;2023-06-22T01:20:08;14.57;;;8.73;;
75990;SDS011;64673;52.276;10.560;2023-06-22T01:22:38;13.30;;;8.68;;
75990;SDS011;64673;52.276;10.560;2023-06-22T01:25:28;14.70;;;9.93;;
75990;SDS011;64673;52.276;10.560;2023-06-22T01:30:27;14.30;;;9.10;;
75990;SDS011;64673;52.276;10.560;2023-06-22T01:32:55;12.90;;;9.20;;
75990;SDS011;64673;52.276;10.560;2023-06-22T01:35:23;13.80;;;8.75;;
75990;SDS011;64673;52.276;10.560;2023-06-22T01:37:50;13.85;;;8.90;;
75990;SDS011;64673;52.276;10.560;2023-06-22T01:40:15;13.73;;;8.55;;
75990;SDS011;64673;52.276;10.560;2023-06-22T01:45:09;14.85;;;8.93;;
75990;SDS011;64673;52.276;10.560;2023-06-22T01:47:36;13.27;;;9.20;;
75990;SDS011;64673;52.276;10.560;2023-06-22T01:50:02;13.73;;;8.85;;
75990;SDS011;64673;52.276;10.560;2023-06-22T01:52:28;15.27;;;8.95;;
75990;SDS011;64673;52.276;10.560;2023-06-22T01:54:53;16.10;;;9.55;;
75990;SDS011;64673;52.276;10.560;2023-06-22T01:57:19;14.77;;;8.88;;
75990;SDS011;64673;52.276;10.560;2023-06-22T01:59:58;15.75;;;8.93;;
75990;SDS011;64673;52.276;10.560;2023-06-22T02:02:25;13.93;;;9.15;;
75990;SDS011;64673;52.276;10.560;2023-06-22T02:04:57;13.80;;;8.85;;
75990;SDS011;64673;52.276;10.560;2023-06-22T02:07:29;13.77;;;9.25;;
75990;SDS011;64673;52.276;10.560;2023-06-22T02:09:58;14.95;;;9.90;;
75990;SDS011;64673;52.276;10.560;2023-06-22T02:12:25;17.15;;;10.02;;
75990;SDS011;64673;52.276;10.560;2023-06-22T02:14:52;12.52;;;8.05;;
75990;SDS011;64673;52.276;10.560;2023-06-22T02:17:18;14.15;;;8.52;;
75990;SDS011;64673;52.276;10.560;2023-06-22T02:19:44;13.85;;;8.70;;
75990;SDS011;64673;52.276;10.560;2023-06-22T02:22:09;14.82;;;9.00;;
75990;SDS011;64673;52.276;10.560;2023-06-22T02:24:35;13.45;;;9.18;;
75990;SDS011;64673;52.276;10.560;2023-06-22T02:27:01;13.32;;;8.60;;
75990;SDS011;64673;52.276;10.560;2023-06-22T02:29:27;14.23;;;9.00;;
75990;SDS011;64673;52.276;10.560;2023-06-22T02:31:53;16.23;;;9.25;;
75990;SDS011;64673;52.276;10.560;2023-06-22T02:34:19;15.90;;;10.18;;
75990;SDS011;64673;52.276;10.560;2023-06-22T02:36:48;14.32;;;9.38;;
75990;SDS011;64673;52.276;10.560;2023-06-22T02:39:20;13.55;;;9.27;;
75990;SDS011;64673;52.276;10.560;2023-06-22T02:41:50;14.23;;;9.60;;
75990;SDS011;64673;52.276;10.560;2023-06-22T02:44:17;15.07;;;9.35;;
75990;SDS011;64673;52.276;10.560;2023-06-22T02:46:43;16.42;;;9.05;;
75990;SDS011;64673;52.276;10.560;2023-06-22T02:49:09;16.25;;;9.98;;
75990;SDS011;64673;52.276;10.560;2023-06-22T02:51:35;15.38;;;9.18;;
75990;SDS011;64673;52.276;10.560;2023-06-22T02:54:04;16.55;;;9.27;;
75990;SDS011;64673;52.276;10.560;2023-06-22T02:56:30;16.27;;;9.68;;
75990;SDS011;64673;52.276;10.560;2023-06-22T02:58:55;15.43;;;9.02;;
75990;SDS011;64673;52.276;10.560;2023-06-22T03:01:26;14.52;;;9.48;;
75990;SDS011;64673;52.276;10.560;2023-06-22T03:03:52;16.88;;;8.73;;
75990;SDS011;64673;52.276;10.560;2023-06-22T03:06:18;14.77;;;9.20;;
75990;SDS011;64673;52.276;10.560;2023-06-22T03:08:51;14.02;;;9.05;;
75990;SDS011;64673;52.276;10.560;2023-06-22T03:11:17;15.13;;;9.43;;
75990;SDS011;64673;52.276;10.560;2023-06-22T03:13:42;15.82;;;9.82;;
75990;SDS011;64673;52.276;10.560;2023-06-22T03:16:08;14.60;;;9.65;;
75990;SDS011;64673;52.276;10.560;2023-06-22T03:18:33;15.45;;;8.88;;
75990;SDS011;64673;52.276;10.560;2023-06-22T03:20:59;14.63;;;9.63;;
75990;SDS011;64673;52.276;10.560;2023-06-22T03:23:25;13.43;;;9.13;;
75990;SDS011;64673;52.276;10.560;2023-06-22T03:25:50;15.60;;;8.85;;
75990;SDS011;64673;52.276;10.560;2023-06-22T03:28:15;13.60;;;8.70;;
75990;SDS011;64673;52.276;10.560;2023-06-22T03:30:41;14.88;;;9.30;;
75990;SDS011;64673;52.276;10.560;2023-06-22T03:33:06;17.50;;;9.68;;
75990;SDS011;64673;52.276;10.560;2023-06-22T03:35:32;14.50;;;9.35;;
75990;SDS011;64673;52.276;10.560;2023-06-22T03:37:57;12.93;;;9.25;;
75990;SDS011;64673;52.276;10.560;2023-06-22T03:40:22;17.42;;;9.52;;
75990;SDS011;64673;52.276;10.560;2023-06-22T03:42:49;13.35;;;9.07;;
75990;SDS011;64673;52.276;10.560;2023-06-22T03:45:14;13.82;;;8.98;;
75990;SDS011;64673;52.276;10.560;2023-06-22T03:47:40;15.27;;;9.27;;
75990;SDS011;64673;52.276;10.560;2023-06-22T03:50:05;12.85;;;8.50;;
75990;SDS011;64673;52.276;10.560;2023-06-22T03:52:31;12.70;;;8.02;;
75990;SDS011;64673;52.276;10.560;2023-06-22T03:54:57;13.95;;;9.15;;
75990;SDS011;64673;52.276;10.560;2023-06-22T03:57:25;14.88;;;9.13;;
75990;SDS011;64673;52.276;10.560;2023-06-22T03:59:51;15.80;;;9.43;;
75990;SDS011;64673;52.276;10.560;2023-06-22T04:02:16;13.07;;;8.85;;
75990;SDS011;64673;52.276;10.560;2023-06-22T04:04:42;15.20;;;9.77;;
75990;SDS011;64673;52.276;10.560;2023-06-22T04:07:07;12.23;;;8.32;;
75990;SDS011;64673;52.276;10.560;2023-06-22T04:09:33;11.75;;;8.05;;
75990;SDS011;64673;52.276;10.560;2023-06-22T04:11:58;14.98;;;8.98;;
75990;SDS011;64673;52.276;10.560;2023-06-22T04:14:24;13.82;;;9.18;;
75990;SDS011;64673;52.276;10.560;2023-06-22T04:16:49;14.23;;;8.13;;
75990;SDS011;64673;52.276;10.560;2023-06-22T04:19:14;12.25;;;7.65;;
75990;SDS011;64673;52.276;10.560;2023-06-22T04:21:42;10.20;;;6.85;;
75990;SDS011;64673;52.276;10.560;2023-06-22T04:24:09;10.80;;;7.13;;
75990;SDS011;64673;52.276;10.560;2023-06-22T04:26:35;9.88;;;6.68;;
75990;SDS011;64673;52.276;10.560;2023-06-22T04:29:05;10.13;;;7.15;;
75990;SDS011;64673;52.276;10.560;2023-06-22T04:31:33;10.30;;;6.53;;
75990;SDS011;64673;52.276;10.560;2023-06-22T04:34:02;9.07;;;6.25;;
75990;SDS011;64673;52.276;10.560;2023-06-22T04:36:32;10.75;;;7.45;;
75990;SDS011;64673;52.276;10.560;2023-06-22T04:39:08;10.68;;;6.85;;
75990;SDS011;64673;52.276;10.560;2023-06-22T04:41:40;9.10;;;6.40;;
75990;SDS011;64673;52.276;10.560;2023-06-22T04:46:37;9.63;;;6.80;;
75990;SDS011;64673;52.276;10.560;2023-06-22T04:49:06;8.18;;;6.15;;
75990;SDS011;64673;52.276;10.560;2023-06-22T04:51:35;9.93;;;6.45;;
75990;SDS011;64673;52.276;10.560;2023-06-22T04:54:07;11.02;;;6.15;;
75990;SDS011;64673;52.276;10.560;2023-06-22T04:56:34;10.60;;;6.30;;
75990;SDS011;64673;52.276;10.560;2023-06-22T04:58:59;11.40;;;6.18;;
75990;SDS011;64673;52.276;10.560;2023-06-22T05:01:25;11.40;;;7.13;;
75990;SDS011;64673;52.276;10.560;2023-06-22T05:03:51;10.60;;;6.47;;
75990;SDS011;64673;52.276;10.560;2023-06-22T05:06:25;9.07;;;5.90;;
75990;SDS011;64673;52.276;10.560;2023-06-22T05:08:55;10.32;;;5.95;;
75990;SDS011;64673;52.276;10.560;2023-06-22T05:11:27;9.50;;;6.38;;
75990;SDS011;64673;52.276;10.560;2023-06-22T05:13:53;8.65;;;6.13;;
75990;SDS011;64673;52.276;10.560;2023-06-22T05:16:19;13.10;;;5.90;;
75990;SDS011;64673;52.276;10.560;2023-06-22T05:18:51;8.88;;;5.72;;
75990;SDS011;64673;52.276;10.560;2023-06-22T05:21:21;9.02;;;5.82;;
75990;SDS011;64673;52.276;10.560;2023-06-22T05:23:51;10.88;;;5.80;;
75990;SDS011;64673;52.276;10.560;2023-06-22T05:26:18;9.60;;;5.93;;
75990;SDS011;64673;52.276;10.560;2023-06-22T05:28:45;8.77;;;5.45;;
75990;SDS011;64673;52.276;10.560;2023-06-22T05:31:12;10.00;;;5.40;;
75990;SDS011;64673;52.276;10.560;2023-06-22T05:33:38;9.60;;;5.50;;
75990;SDS011;64673;52.276;10.560;2023-06-22T05:36:04;7.50;;;5.90;;
75990;SDS011;64673;52.276;10.560;2023-06-22T05:38:30;9.77;;;5.40;;
75990;SDS011;64673;52.276;10.560;2023-06-22T05:40:56;10.20;;;5.25;;
75990;SDS011;64673;52.276;10.560;2023-06-22T05:43:21;8.88;;;5.60;;
75990;SDS011;64673;52.276;10.560;2023-06-22T05:45:46;7.18;;;5.50;;
75990;SDS011;64673;52.276;10.560;2023-06-22T05:48:12;6.20;;;5.05;;
75990;SDS011;64673;52.276;10.560;2023-06-22T05:50:37;10.40;;;4.60;;
75990;SDS011;64673;52.276;10.560;2023-06-22T05:53:02;8.02;;;5.43;;
75990;SDS011;64673;52.276;10.560;2023-06-22T05:55:28;7.20;;;4.55;;
75990;SDS011;64673;52.276;10.560;2023-06-22T05:57:53;7.05;;;4.97;;
75990;SDS011;64673;52.276;10.560;2023-06-22T06:00:18;6.88;;;4.72;;
75990;SDS011;64673;52.276;10.560;2023-06-22T06:02:44;8.20;;;5.00;;
75990;SDS011;64673;52.276;10.560;2023-06-22T06:05:10;5.63;;;4.32;;
75990;SDS011;64673;52.276;10.560;2023-06-22T06:07:39;6.53;;;4.57;;
75990;SDS011;64673;52.276;10.560;2023-06-22T06:10:05;6.10;;;5.00;;
75990;SDS011;64673;52.276;10.560;2023-06-22T06:12:31;5.70;;;4.32;;
75990;SDS011;64673;52.276;10.560;2023-06-22T06:14:57;7.43;;;4.82;;
75990;SDS011;64673;52.276;10.560;2023-06-22T06:17:22;6.88;;;4.97;;
75990;SDS011;64673;52.276;10.560;2023-06-22T06:19:47;8.73;;;4.72;;
75990;SDS011;64673;52.276;10.560;2023-06-22T06:22:13;7.43;;;4.68;;
75990;SDS011;64673;52.276;10.560;2023-06-22T06:24:38;6.93;;;5.07;;
75990;SDS011;64673;52.276;10.560;2023-06-22T06:27:03;8.82;;;5.18;;
75990;SDS011;64673;52.276;10.560;2023-06-22T06:29:29;7.03;;;5.00;;
75990;SDS011;64673;52.276;10.560;2023-06-22T06:31:55;7.50;;;4.78;;
75990;SDS011;64673;52.276;10.560;2023-06-22T06:34:21;6.28;;;4.60;;
75990;SDS011;64673;52.276;10.560;2023-06-22T06:36:47;7.68;;;5.35;;
75990;SDS011;64673;52.276;10.560;2023-06-22T06:39:12;6.90;;;4.65;;
75990;SDS011;64673;52.276;10.560;2023-06-22T06:41:38;7.47;;;5.18;;
75990;SDS011;64673;52.276;10.560;2023-06-22T06:44:03;7.25;;;4.80;;
75990;SDS011;64673;52.276;10.560;2023-06-22T06:46:28;6.53;;;4.80;;
75990;SDS011;64673;52.276;10.560;2023-06-22T06:48:54;7.10;;;4.88;;
75990;SDS011;64673;52.276;10.560;2023-06-22T06:51:19;8.13;;;5.20;;
75990;SDS011;64673;52.276;10.560;2023-06-22T06:53:44;7.90;;;5.80;;
75990;SDS011;64673;52.276;10.560;2023-06-22T06:56:10;7.13;;;5.28;;
75990;SDS011;64673;52.276;10.560;2023-06-22T06:58:35;8.32;;;5.07;;
75990;SDS011;64673;52.276;10.560;2023-06-22T07:01:01;7.35;;;5.43;;
75990;SDS011;64673;52.276;10.560;2023-06-22T07:03:28;9.98;;;5.38;;
75990;SDS011;64673;52.276;10.560;2023-06-22T07:05:53;7.95;;;5.43;;
75990;SDS011;64673;52.276;10.560;2023-06-22T07:08:18;9.05;;;5.75;;
75990;SDS011;64673;52.276;10.560;2023-06-22T07:10:44;8.20;;;5.97;;
75990;SDS011;64673;52.276;10.560;2023-06-22T07:13:09;7.53;;;5.47;;
75990;SDS011;64673;52.276;10.560;2023-06-22T07:15:35;7.25;;;4.85;;
75990;SDS011;64673;52.276;10.560;2023-06-22T07:18:00;9.07;;;5.85;;
75990;SDS011;64673;52.276;10.560;2023-06-22T07:20:25;7.45;;;5.72;;
75990;SDS011;64673;52.276;10.560;2023-06-22T07:22:51;9.02;;;5.70;;
75990;SDS011;64673;52.276;10.560;2023-06-22T07:25:16;7.38;;;5.28;;
75990;SDS011;64673;52.276;10.560;2023-06-22T07:27:46;8.10;;;5.53;;
75990;SDS011;64673;52.276;10.560;2023-06-22T07:30:22;10.32;;;6.10;;
75990;SDS011;64673;52.276;10.560;2023-06-22T07:32:48;10.95;;;6.50;;
75990;SDS011;64673;52.276;10.560;2023-06-22T07:35:13;9.73;;;6.10;;
75990;SDS011;64673;52.276;10.560;2023-06-22T07:37:38;10.18;;;6.15;;
75990;SDS011;64673;52.276;10.560;2023-06-22T07:40:04;10.48;;;6.22;;
75990;SDS011;64673;52.276;10.560;2023-06-22T07:42:31;11.27;;;5.93;;
75990;SDS011;64673;52.276;10.560;2023-06-22T07:45:00;8.80;;;6.00;;
75990;SDS011;64673;52.276;10.560;2023-06-22T07:47:27;8.38;;;6.47;;
75990;SDS011;64673;52.276;10.560;2023-06-22T07:49:53;8.15;;;6.28;;
75990;SDS011;64673;52.276;10.560;2023-06-22T07:52:19;8.55;;;5.70;;
75990;SDS011;64673;52.276;10.560;2023-06-22T07:54:46;11.52;;;6.60;;
75990;SDS011;64673;52.276;10.560;2023-06-22T07:57:11;10.57;;;6.10;;
75990;SDS011;64673;52.276;10.560;2023-06-22T07:59:37;11.57;;;7.10;;
75990;SDS011;64673;52.276;10.560;2023-06-22T08:02:02;11.95;;;7.53;;
75990;SDS011;64673;52.276;10.560;2023-06-22T08:04:28;11.13;;;7.60;;
75990;SDS011;64673;52.276;10.560;2023-06-22T08:06:54;10.30;;;7.05;;
75990;SDS011;64673;52.276;10.560;2023-06-22T08:09:19;10.77;;;6.95;;
75990;SDS011;64673;52.276;10.560;2023-06-22T08:11:44;10.88;;;8.50;;
75990;SDS011;64673;52.276;10.560;2023-06-22T08:14:10;10.85;;;7.78;;
75990;SDS011;64673;52.276;10.560;2023-06-22T08:16:35;10.60;;;7.53;;
75990;SDS011;64673;52.276;10.560;2023-06-22T08:19:00;11.48;;;8.07;;
75990;SDS011;64673;52.276;10.560;2023-06-22T08:21:26;8.85;;;7.22;;
75990;SDS011;64673;52.276;10.560;2023-06-22T08:23:51;10.25;;;7.75;;
75990;SDS011;64673;52.276;10.560;2023-06-22T08:26:16;12.88;;;7.85;;
75990;SDS011;64673;52.276;10.560;2023-06-22T08:28:42;10.02;;;7.45;;
75990;SDS011;64673;52.276;10.560;2023-06-22T08:31:07;9.45;;;7.40;;
75990;SDS011;64673;52.276;10.560;2023-06-22T08:33:33;9.70;;;7.82;;
75990;SDS011;64673;52.276;10.560;2023-06-22T08:35:59;10.60;;;7.55;;
75990;SDS011;64673;52.276;10.560;2023-06-22T08:38:25;11.48;;;8.07;;
75990;SDS011;64673;52.276;10.560;2023-06-22T08:40:50;10.50;;;8.02;;
75990;SDS011;64673;52.276;10.560;2023-06-22T08:43:16;12.70;;;8.57;;
75990;SDS011;64673;52.276;10.560;2023-06-22T08:45:41;13.23;;;8.27;;
75990;SDS011;64673;52.276;10.560;2023-06-22T08:48:06;10.27;;;7.75;;
75990;SDS011;64673;52.276;10.560;2023-06-22T08:50:32;12.23;;;8.25;;
75990;SDS011;64673;52.276;10.560;2023-06-22T08:52:57;12.80;;;8.43;;
75990;SDS011;64673;52.276;10.560;2023-06-22T08:55:22;12.40;;;8.05;;
75990;SDS011;64673;52.276;10.560;2023-06-22T08:57:48;11.85;;;8.27;;
75990;SDS011;64673;52.276;10.560;2023-06-22T09:00:13;11.32;;;8.48;;
75990;SDS011;64673;52.276;10.560;2023-06-22T09:02:45;15.07;;;8.95;;
75990;SDS011;64673;52.276;10.560;2023-06-22T09:05:11;11.55;;;8.00;;
75990;SDS011;64673;52.276;10.560;2023-06-22T09:07:37;11.95;;;9.38;;
75990;SDS011;64673;52.276;10.560;2023-06-22T09:10:03;10.63;;;8.20;;
75990;SDS011;64673;52.276;10.560;2023-06-22T09:12:32;10.43;;;8.00;;
75990;SDS011;64673;52.276;10.560;2023-06-22T09:14:58;12.43;;;9.15;;
75990;SDS011;64673;52.276;10.560;2023-06-22T09:17:28;10.98;;;9.38;;
75990;SDS011;64673;52.276;10.560;2023-06-22T09:19:53;14.23;;;8.63;;
75990;SDS011;64673;52.276;10.560;2023-06-22T09:22:19;12.07;;;8.30;;
75990;SDS011;64673;52.276;10.560;2023-06-22T09:24:44;11.27;;;9.48;;
75990;SDS011;64673;52.276;10.560;2023-06-22T09:27:10;12.05;;;8.48;;
75990;SDS011;64673;52.276;10.560;2023-06-22T09:29:35;14.95;;;8.93;;
75990;SDS011;64673;52.276;10.560;2023-06-22T09:32:00;13.13;;;9.98;;
75990;SDS011;64673;52.276;10.560;2023-06-22T09:34:26;11.93;;;9.20;;
75990;SDS011;64673;52.276;10.560;2023-06-22T09:36:52;11.30;;;8.90;;
75990;SDS011;64673;52.276;10.560;2023-06-22T09:39:18;13.88;;;9.18;;
75990;SDS011;64673;52.276;10.560;2023-06-22T09:41:43;12.90;;;9.32;;
75990;SDS011;64673;52.276;10.560;2023-06-22T09:44:09;11.50;;;8.57;;
75990;SDS011;64673;52.276;10.560;2023-06-22T09:46:34;12.57;;;10.00;;
75990;SDS011;64673;52.276;10.560;2023-06-22T09:48:59;11.93;;;9.02;;
75990;SDS011;64673;52.276;10.560;2023-06-22T09:51:25;12.63;;;9.63;;
75990;SDS011;64673;52.276;10.560;2023-06-22T09:53:50;11.70;;;9.23;;
75990;SDS011;64673;52.276;10.560;2023-06-22T09:56:17;11.00;;;9.10;;
75990;SDS011;64673;52.276;10.560;2023-06-22T09:58:43;12.00;;;9.38;;
75990;SDS011;64673;52.276;10.560;2023-06-22T10:01:09;12.13;;;8.73;;
75990;SDS011;64673;52.276;10.560;2023-06-22T10:03:35;11.43;;;8.63;;
75990;SDS011;64673;52.276;10.560;2023-06-22T10:06:01;10.07;;;8.18;;
75990;SDS011;64673;52.276;10.560;2023-06-22T10:08:26;11.93;;;8.50;;
75990;SDS011;64673;52.276;10.560;2023-06-22T10:10:51;12.98;;;8.55;;
75990;SDS011;64673;52.276;10.560;2023-06-22T10:13:17;9.35;;;7.72;;
75990;SDS011;64673;52.276;10.560;2023-06-22T10:15:43;13.52;;;9.57;;
75990;SDS011;64673;52.276;10.560;2023-06-22T10:18:14;13.77;;;8.35;;
75990;SDS011;64673;52.276;10.560;2023-06-22T10:20:40;11.05;;;8.50;;
75990;SDS011;64673;52.276;10.560;2023-06-22T10:23:05;10.88;;;8.43;;
75990;SDS011;64673;52.276;10.560;2023-06-22T10:25:31;12.45;;;8.88;;
75990;SDS011;64673;52.276;10.560;2023-06-22T10:27:56;12.18;;;8.38;;
75990;SDS011;64673;52.276;10.560;2023-06-22T10:30:22;11.45;;;9.20;;
75990;SDS011;64673;52.276;10.560;2023-06-22T10:32:48;10.20;;;8.93;;
75990;SDS011;64673;52.276;10.560;2023-06-22T10:35:13;12.13;;;9.30;;
75990;SDS011;64673;52.276;10.560;2023-06-22T10:37:41;10.63;;;8.50;;
75990;SDS011;64673;52.276;10.560;2023-06-22T10:40:11;10.27;;;8.93;;
75990;SDS011;64673;52.276;10.560;2023-06-22T10:42:37;11.40;;;9.27;;
75990;SDS011;64673;52.276;10.560;2023-06-22T10:45:03;11.82;;;9.13;;
75990;SDS011;64673;52.276;10.560;2023-06-22T10:47:29;11.68;;;9.23;;
75990;SDS011;64673;52.276;10.560;2023-06-22T10:49:54;11.13;;;8.45;;
75990;SDS011;64673;52.276;10.560;2023-06-22T10:52:19;10.02;;;8.52;;
75990;SDS011;64673;52.276;10.560;2023-06-22T10:54:45;10.50;;;8.63;;
75990;SDS011;64673;52.276;10.560;2023-06-22T10:57:10;9.85;;;8.38;;
75990;SDS011;64673;52.276;10.560;2023-06-22T10:59:35;12.05;;;9.00;;
75990;SDS011;64673;52.276;10.560;2023-06-22T11:02:01;10.75;;;8.23;;
75990;SDS011;64673;52.276;10.560;2023-06-22T11:04:27;10.60;;;8.40;;
75990;SDS011;64673;52.276;10.560;2023-06-22T11:06:52;11.85;;;8.50;;
75990;SDS011;64673;52.276;10.560;2023-06-22T11:09:17;7.90;;;7.10;;
75990;SDS011;64673;52.276;10.560;2023-06-22T11:11:45;9.27;;;7.88;;
75990;SDS011;64673;52.276;10.560;2023-06-22T11:14:15;9.40;;;7.35;;
75990;SDS011;64673;52.276;10.560;2023-06-22T11:16:40;9.18;;;7.47;;
75990;SDS011;64673;52.276;10.560;2023-06-22T11:19:06;10.63;;;8.10;;
75990;SDS011;64673;52.276;10.560;2023-06-22T11:21:31;8.52;;;7.45;;
75990;SDS011;64673;52.276;10.560;2023-06-22T11:23:57;10.52;;;7.00;;
75990;SDS011;64673;52.276;10.560;2023-06-22T11:26:23;9.13;;;7.25;;
75990;SDS011;64673;52.276;10.560;2023-06-22T11:28:49;9.18;;;7.70;;
75990;SDS011;64673;52.276;10.560;2023-06-22T11:31:14;8.15;;;7.13;;
75990;SDS011;64673;52.276;10.560;2023-06-22T11:33:40;10.70;;;7.80;;
75990;SDS011;64673;52.276;10.560;2023-06-22T11:36:05;10.18;;;7.32;;
75990;SDS011;64673;52.276;10.560;2023-06-22T11:38:30;9.45;;;7.15;;
75990;SDS011;64673;52.276;10.560;2023-06-22T11:40:57;8.75;;;7.70;;
75990;SDS011;64673;52.276;10.560;2023-06-22T11:43:23;9.00;;;6.93;;
75990;SDS011;64673;52.276;10.560;2023-06-22T11:45:49;8.63;;;7.47;;
75990;SDS011;64673;52.276;10.560;2023-06-22T11:48:15;9.55;;;7.53;;
75990;SDS011;64673;52.276;10.560;2023-06-22T11:50:40;8.68;;;7.40;;
75990;SDS011;64673;52.276;10.560;2023-06-22T11:53:06;8.50;;;6.90;;
75990;SDS011;64673;52.276;10.560;2023-06-22T11:55:31;8.25;;;7.32;;
75990;SDS011;64673;52.276;10.560;2023-06-22T11:57:57;9.00;;;7.32;;
75990;SDS011;64673;52.276;10.560;2023-06-22T12:00:25;7.85;;;6.82;;
75990;SDS011;64673;52.276;10.560;2023-06-22T12:02:51;8.43;;;7.20;;
75990;SDS011;64673;52.276;10.560;2023-06-22T12:05:18;8.40;;;6.93;;
75990;SDS011;64673;52.276;10.560;2023-06-22T12:07:45;7.95;;;6.72;;
75990;SDS011;64673;52.276;10.560;2023-06-22T12:10:11;8.02;;;6.78;;
75990;SDS011;64673;52.276;10.560;2023-06-22T12:12:36;8.90;;;6.68;;
75990;SDS011;64673;52.276;10.560;2023-06-22T12:15:01;8.90;;;7.15;;
75990;SDS011;64673;52.276;10.560;2023-06-22T12:17:29;8.95;;;6.93;;
75990;SDS011;64673;52.276;10.560;2023-06-22T12:19:57;9.05;;;6.47;;
75990;SDS011;64673;52.276;10.560;2023-06-22T12:22:23;10.13;;;7.15;;
75990;SDS011;64673;52.276;10.560;2023-06-22T12:24:48;8.50;;;6.93;;
75990;SDS011;64673;52.276;10.560;2023-06-22T12:27:14;8.90;;;6.75;;
75990;SDS011;64673;52.276;10.560;2023-06-22T12:29:41;7.60;;;6.80;;
75990;SDS011;64673;52.276;10.560;2023-06-22T12:32:06;10.93;;;7.40;;
75990;SDS011;64673;52.276;10.560;2023-06-22T12:34:32;9.35;;;7.75;;
75990;SDS011;64673;52.276;10.560;2023-06-22T12:36:58;8.95;;;7.43;;
75990;SDS011;64673;52.276;10.560;2023-06-22T12:39:23;8.75;;;7.05;;
75990;SDS011;64673;52.276;10.560;2023-06-22T12:41:48;8.63;;;7.00;;
75990;SDS011;64673;52.276;10.560;2023-06-22T12:44:14;8.90;;;7.25;;
75990;SDS011;64673;52.276;10.560;2023-06-22T12:46:39;7.85;;;6.53;;
75990;SDS011;64673;52.276;10.560;2023-06-22T12:49:04;8.98;;;6.72;;
75990;SDS011;64673;52.276;10.560;2023-06-22T12:51:30;11.55;;;7.78;;
75990;SDS011;64673;52.276;10.560;2023-06-22T12:53:55;8.65;;;7.43;;
75990;SDS011;64673;52.276;10.560;2023-06-22T12:56:21;8.85;;;7.13;;
75990;SDS011;64673;52.276;10.560;2023-06-22T12:58:46;8.77;;;7.43;;
75990;SDS011;64673;52.276;10.560;2023-06-22T13:01:11;8.30;;;6.80;;
75990;SDS011;64673;52.276;10.560;2023-06-22T13:03:37;7.00;;;6.30;;
75990;SDS011;64673;52.276;10.560;2023-06-22T13:06:02;9.27;;;7.40;;
75990;SDS011;64673;52.276;10.560;2023-06-22T13:08:28;8.00;;;6.90;;
75990;SDS011;64673;52.276;10.560;2023-06-22T13:10:54;11.43;;;6.78;;
75990;SDS011;64673;52.276;10.560;2023-06-22T13:13:21;8.35;;;7.45;;
75990;SDS011;64673;52.276;10.560;2023-06-22T13:15:49;13.73;;;7.80;;
75990;SDS011;64673;52.276;10.560;2023-06-22T13:18:15;9.32;;;7.65;;
75990;SDS011;64673;52.276;10.560;2023-06-22T13:20:40;9.35;;;7.88;;
75990;SDS011;64673;52.276;10.560;2023-06-22T13:23:05;8.32;;;7.53;;
75990;SDS011;64673;52.276;10.560;2023-06-22T13:25:31;9.30;;;8.18;;
75990;SDS011;64673;52.276;10.560;2023-06-22T13:27:56;9.43;;;7.75;;
75990;SDS011;64673;52.276;10.560;2023-06-22T13:30:21;8.90;;;7.55;;
75990;SDS011;64673;52.276;10.560;2023-06-22T13:32:47;10.70;;;7.97;;
75990;SDS011;64673;52.276;10.560;2023-06-22T13:35:12;8.82;;;7.75;;
75990;SDS011;64673;52.276;10.560;2023-06-22T13:37:38;9.57;;;7.85;;
75990;SDS011;64673;52.276;10.560;2023-06-22T13:40:04;11.20;;;8.75;;
75990;SDS011;64673;52.276;10.560;2023-06-22T13:42:31;10.35;;;8.25;;
75990;SDS011;64673;52.276;10.560;2023-06-22T13:44:57;9.90;;;8.43;;
75990;SDS011;64673;52.276;10.560;2023-06-22T13:47:22;9.35;;;8.07;;
75990;SDS011;64673;52.276;10.560;2023-06-22T13:49:48;8.48;;;7.57;;
75990;SDS011;64673;52.276;10.560;2023-06-22T13:52:14;9.90;;;7.85;;
75990;SDS011;64673;52.276;10.560;2023-06-22T13:54:39;10.73;;;8.50;;
75990;SDS011;64673;52.276;10.560;2023-06-22T13:57:04;8.35;;;7.45;;
75990;SDS011;64673;52.276;10.560;2023-06-22T13:59:30;10.57;;;8.38;;
75990;SDS011;64673;52.276;10.560;2023-06-22T14:01:55;10.30;;;8.38;;
75990;SDS011;64673;52.276;10.560;2023-06-22T14:04:22;9.75;;;7.88;;
75990;SDS011;64673;52.276;10.560;2023-06-22T14:06:48;10.50;;;8.05;;
75990;SDS011;64673;52.276;10.560;2023-06-22T14:09:14;9.80;;;8.68;;
75990;SDS011;64673;52.276;10.560;2023-06-22T14:11:39;9.65;;;8.27;;
75990;SDS011;64673;52.276;10.560;2023-06-22T14:14:04;10.23;;;8.32;;
75990;SDS011;64673;52.276;10.560;2023-06-22T14:16:30;10.60;;;9.20;;
75990;SDS011;64673;52.276;10.560;2023-06-22T14:18:55;9.82;;;8.27;;
75990;SDS011;64673;52.276;10.560;2023-06-22T14:21:20;8.75;;;7.85;;
75990;SDS011;64673;52.276;10.560;2023-06-22T14:23:46;10.10;;;8.35;;
75990;SDS011;64673;52.276;10.560;2023-06-22T14:26:14;9.15;;;7.93;;
75990;SDS011;64673;52.276;10.560;2023-06-22T14:28:46;11.95;;;8.77;;